Time;durP1;ratioP1;P1;durP2;ratioP2;P2;SDS_P1;SDS_P2;PMS_P1;PMS_P2;Temp;Humidity;BMP_temperature;BMP_pressure;BME280_temperature;BME280_humidity;BME280_pressure;Samples;Min_cycle;Max_cycle;Signal;HPM_P1;HPM_P2
2023/07/17 00:01:55;;;;;;;7.37;3.50;;;;;;;;;;5018051;28;20230;-82
2023/07/17 00:04:21;;;;;;;5.90;3.40;;;;;;;;;;5001404;28;20185;-83
2023/07/17 00:06:47;;;;;;;5.83;3.80;;;;;;;;;;5018008;28;20201;-83
2023/07/17 00:09:13;;;;;;;5.33;3.50;;;;;;;;;;5013902;28;20196;-82
2023/07/17 00:11:39;;;;;;;6.30;3.87;;;;;;;;;;5001680;28;20203;-76
2023/07/17 00:14:05;;;;;;;8.33;3.73;;;;;;;;;;5017755;28;20189;-73
2023/07/17 00:16:31;;;;;;;6.93;3.93;;;;;;;;;;5001160;28;20216;-73
2023/07/17 00:18:57;;;;;;;6.87;3.73;;;;;;;;;;5001281;28;20200;-73
2023/07/17 00:21:23;;;;;;;8.77;4.10;;;;;;;;;;5001378;28;20193;-74
2023/07/17 00:23:50;;;;;;;6.37;4.17;;;;;;;;;;4994106;28;20256;-74
2023/07/17 00:26:16;;;;;;;8.27;4.33;;;;;;;;;;5001216;28;20284;-74
2023/07/17 00:28:42;;;;;;;9.00;4.50;;;;;;;;;;5017536;28;20191;-73
2023/07/17 00:31:08;;;;;;;6.27;4.47;;;;;;;;;;5001547;28;20193;-77
2023/07/17 00:33:34;;;;;;;7.90;4.87;;;;;;;;;;5017726;28;20219;-77
2023/07/17 00:36:00;;;;;;;7.00;4.73;;;;;;;;;;5017157;28;20240;-78
2023/07/17 00:38:26;;;;;;;5.50;4.33;;;;;;;;;;5017561;28;20205;-77
2023/07/17 00:40:53;;;;;;;7.10;4.90;;;;;;;;;;5034733;28;20192;-77
2023/07/17 00:43:19;;;;;;;8.40;4.67;;;;;;;;;;5000760;28;20180;-77
2023/07/17 00:45:45;;;;;;;8.13;4.47;;;;;;;;;;5000711;28;20192;-77
2023/07/17 00:48:11;;;;;;;7.73;4.37;;;;;;;;;;5017471;28;20181;-77
2023/07/17 00:50:38;;;;;;;6.00;4.40;;;;;;;;;;5001248;28;20234;-77
2023/07/17 00:53:04;;;;;;;6.40;4.43;;;;;;;;;;5016524;28;20192;-77
2023/07/17 00:55:31;;;;;;;6.57;4.67;;;;;;;;;;5034517;28;20204;-77
2023/07/17 00:57:57;;;;;;;5.90;4.67;;;;;;;;;;5017084;28;20192;-77
2023/07/17 01:00:24;;;;;;;6.27;4.33;;;;;;;;;;5034222;28;20193;-77
2023/07/17 01:02:53;;;;;;;7.13;4.50;;;;;;;;;;5016455;28;20173;-77
2023/07/17 01:05:19;;;;;;;6.73;4.27;;;;;;;;;;5034777;28;20263;-77
2023/07/17 01:07:45;;;;;;;6.33;3.80;;;;;;;;;;5017009;28;20291;-77
2023/07/17 01:10:12;;;;;;;6.80;4.50;;;;;;;;;;5016884;28;20195;-77
2023/07/17 01:12:38;;;;;;;8.30;4.57;;;;;;;;;;5017203;28;20193;-77
2023/07/17 01:15:04;;;;;;;5.53;4.57;;;;;;;;;;5034022;28;20187;-78
2023/07/17 01:17:30;;;;;;;7.60;4.33;;;;;;;;;;5016519;28;20197;-77
2023/07/17 01:19:57;;;;;;;7.10;4.63;;;;;;;;;;4999543;28;20183;-77
2023/07/17 01:22:26;;;;;;;8.90;4.60;;;;;;;;;;5016250;28;20184;-76
2023/07/17 01:24:52;;;;;;;7.87;4.53;;;;;;;;;;5016438;28;20176;-76
2023/07/17 01:27:18;;;;;;;7.17;4.23;;;;;;;;;;5016541;28;20212;-76
2023/07/17 01:29:44;;;;;;;6.40;4.50;;;;;;;;;;5016551;28;20215;-76
2023/07/17 01:32:10;;;;;;;9.20;4.60;;;;;;;;;;5016417;28;20246;-76
2023/07/17 01:34:37;;;;;;;7.17;4.53;;;;;;;;;;5033723;28;20267;-75
2023/07/17 01:37:03;;;;;;;8.23;4.60;;;;;;;;;;5000551;28;20314;-73
2023/07/17 01:39:29;;;;;;;9.80;4.40;;;;;;;;;;5016276;28;20188;-73
2023/07/17 01:41:55;;;;;;;11.93;4.77;;;;;;;;;;5033631;28;20268;-73
2023/07/17 01:44:21;;;;;;;8.60;4.70;;;;;;;;;;4985759;28;20305;-73
2023/07/17 01:46:47;;;;;;;7.07;4.40;;;;;;;;;;4996903;28;20189;-73
2023/07/17 01:49:13;;;;;;;7.30;4.73;;;;;;;;;;4996743;28;20189;-73
2023/07/17 01:51:39;;;;;;;6.87;4.50;;;;;;;;;;4986161;28;20254;-73
2023/07/17 01:54:05;;;;;;;6.87;4.73;;;;;;;;;;4999864;28;20192;-75
2023/07/17 01:56:32;;;;;;;7.60;4.80;;;;;;;;;;5015183;28;20219;-76
2023/07/17 01:58:58;;;;;;;8.47;4.50;;;;;;;;;;5033848;28;20191;-76
2023/07/17 02:01:24;;;;;;;8.33;4.43;;;;;;;;;;5031917;28;20243;-75
2023/07/17 02:03:50;;;;;;;6.90;4.30;;;;;;;;;;4994730;28;20295;-76
2023/07/17 02:06:17;;;;;;;7.70;4.53;;;;;;;;;;5015079;28;20249;-75
2023/07/17 02:08:43;;;;;;;6.67;4.30;;;;;;;;;;5029002;28;20216;-76
2023/07/17 02:11:09;;;;;;;7.97;4.40;;;;;;;;;;5015366;28;20220;-77
2023/07/17 02:13:35;;;;;;;7.77;4.57;;;;;;;;;;5032987;28;20185;-77
2023/07/17 02:16:01;;;;;;;9.70;4.53;;;;;;;;;;5014833;28;20223;-77
2023/07/17 02:18:29;;;;;;;8.53;4.30;;;;;;;;;;4999246;28;20212;-77
2023/07/17 02:20:55;;;;;;;8.50;4.30;;;;;;;;;;4996763;28;20193;-75
2023/07/17 02:23:21;;;;;;;6.43;4.60;;;;;;;;;;4999354;28;20176;-75
2023/07/17 02:25:47;;;;;;;7.33;4.50;;;;;;;;;;5015596;28;20216;-73
2023/07/17 02:28:15;;;;;;;8.90;4.70;;;;;;;;;;4999258;28;20218;-83
2023/07/17 02:30:41;;;;;;;9.17;4.80;;;;;;;;;;5016023;28;20192;-82
2023/07/17 02:33:07;;;;;;;9.17;4.60;;;;;;;;;;5002570;28;20193;-83
2023/07/17 02:35:33;;;;;;;10.07;4.80;;;;;;;;;;5019838;28;20632;-82
2023/07/17 02:37:59;;;;;;;8.63;4.53;;;;;;;;;;5019308;28;20192;-82
2023/07/17 02:40:25;;;;;;;10.03;4.90;;;;;;;;;;5019485;28;20193;-82
2023/07/17 02:42:51;;;;;;;11.13;4.90;;;;;;;;;;5018928;28;20303;-83
2023/07/17 02:45:17;;;;;;;9.70;5.00;;;;;;;;;;5036904;28;20185;-74
2023/07/17 02:47:43;;;;;;;7.17;4.73;;;;;;;;;;5002368;28;20291;-73
2023/07/17 02:50:09;;;;;;;11.03;4.87;;;;;;;;;;5002670;28;20189;-73
2023/07/17 02:52:36;;;;;;;6.97;4.77;;;;;;;;;;5002083;28;20185;-73
2023/07/17 02:55:04;;;;;;;10.10;4.97;;;;;;;;;;5019118;28;20204;-73
2023/07/17 02:57:30;;;;;;;9.40;4.83;;;;;;;;;;5036502;28;20216;-73
2023/07/17 02:59:57;;;;;;;7.97;4.83;;;;;;;;;;5019228;28;20207;-73
2023/07/17 03:02:24;;;;;;;8.30;4.83;;;;;;;;;;5018921;28;20196;-77
2023/07/17 03:04:50;;;;;;;7.43;5.00;;;;;;;;;;5019189;28;20195;-77
2023/07/17 03:07:16;;;;;;;12.10;5.27;;;;;;;;;;5019028;28;20189;-78
2023/07/17 03:09:41;;;;;;;10.53;5.50;;;;;;;;;;5018817;28;20192;-78
2023/07/17 03:12:08;;;;;;;6.77;4.63;;;;;;;;;;5002544;28;20189;-78
2023/07/17 03:14:34;;;;;;;8.30;5.00;;;;;;;;;;4999437;28;20199;-77
2023/07/17 03:17:00;;;;;;;10.13;5.20;;;;;;;;;;5014686;28;20208;-76
2023/07/17 03:19:26;;;;;;;7.63;5.00;;;;;;;;;;5019356;28;20176;-76
2023/07/17 03:21:52;;;;;;;11.60;5.27;;;;;;;;;;4999306;28;20265;-75
2023/07/17 03:24:18;;;;;;;10.50;5.00;;;;;;;;;;5002210;28;20224;-75
2023/07/17 03:26:45;;;;;;;9.50;4.77;;;;;;;;;;5002664;28;20227;-75
2023/07/17 03:29:11;;;;;;;10.67;5.47;;;;;;;;;;5002253;28;20208;-75
2023/07/17 03:31:37;;;;;;;7.43;4.80;;;;;;;;;;5002243;28;20220;-75
2023/07/17 03:34:03;;;;;;;7.93;4.87;;;;;;;;;;5029510;28;20192;-75
2023/07/17 03:36:29;;;;;;;7.47;4.77;;;;;;;;;;5018558;28;20232;-75
2023/07/17 03:38:55;;;;;;;10.47;5.20;;;;;;;;;;5018037;28;20189;-75
2023/07/17 03:41:21;;;;;;;10.13;5.30;;;;;;;;;;5035694;28;20196;-75
2023/07/17 03:43:47;;;;;;;10.20;4.80;;;;;;;;;;5017914;28;20224;-75
2023/07/17 03:46:14;;;;;;;9.77;5.23;;;;;;;;;;5035580;28;20272;-75
2023/07/17 03:48:40;;;;;;;9.63;4.60;;;;;;;;;;5018161;28;20200;-76
2023/07/17 03:51:06;;;;;;;10.50;5.07;;;;;;;;;;5001685;28;20218;-73
2023/07/17 03:53:32;;;;;;;9.10;4.30;;;;;;;;;;5016536;28;20189;-73
2023/07/17 03:55:58;;;;;;;9.60;5.10;;;;;;;;;;5035399;28;20266;-73
2023/07/17 03:58:24;;;;;;;8.53;5.00;;;;;;;;;;5001842;28;20208;-73
2023/07/17 04:00:50;;;;;;;11.40;4.50;;;;;;;;;;5001868;28;20192;-75
2023/07/17 04:03:17;;;;;;;8.73;4.47;;;;;;;;;;5002106;28;20250;-75
2023/07/17 04:05:44;;;;;;;11.73;4.97;;;;;;;;;;5001563;28;20189;-75
2023/07/17 04:08:10;;;;;;;8.53;4.47;;;;;;;;;;5003670;28;20200;-73
2023/07/17 04:10:36;;;;;;;8.90;4.70;;;;;;;;;;5016004;28;20208;-73
2023/07/17 04:13:02;;;;;;;8.10;4.37;;;;;;;;;;4999876;28;20223;-73
2023/07/17 04:15:29;;;;;;;12.53;4.53;;;;;;;;;;5017789;28;20299;-73
2023/07/17 04:17:55;;;;;;;12.00;4.97;;;;;;;;;;5017120;28;20185;-73
2023/07/17 04:20:21;;;;;;;10.43;4.47;;;;;;;;;;5034776;28;20192;-73
2023/07/17 04:22:47;;;;;;;9.13;4.80;;;;;;;;;;4986752;28;20235;-73
2023/07/17 04:25:13;;;;;;;9.97;4.80;;;;;;;;;;5020351;28;20173;-73
2023/07/17 04:27:39;;;;;;;8.43;4.90;;;;;;;;;;5035004;28;20187;-73
2023/07/17 04:30:05;;;;;;;9.37;4.70;;;;;;;;;;4999765;28;20181;-73
2023/07/17 04:32:32;;;;;;;11.20;4.77;;;;;;;;;;5033599;28;20248;-73
2023/07/17 04:34:58;;;;;;;9.73;5.20;;;;;;;;;;5032903;28;20185;-73
2023/07/17 04:37:24;;;;;;;10.23;5.23;;;;;;;;;;5016785;28;20228;-73
2023/07/17 04:39:50;;;;;;;10.47;5.30;;;;;;;;;;5015974;28;20425;-73
2023/07/17 04:42:16;;;;;;;9.47;4.87;;;;;;;;;;5021304;28;20180;-73
2023/07/17 04:44:43;;;;;;;13.57;5.33;;;;;;;;;;4997489;28;20188;-73
2023/07/17 04:47:10;;;;;;;14.07;5.50;;;;;;;;;;5022895;28;20177;-74
2023/07/17 04:49:36;;;;;;;10.23;5.17;;;;;;;;;;5016470;28;20215;-73
2023/07/17 04:52:02;;;;;;;12.90;5.60;;;;;;;;;;5022200;28;20223;-73
2023/07/17 04:54:28;;;;;;;14.20;5.70;;;;;;;;;;4999159;28;20200;-73
2023/07/17 04:56:54;;;;;;;10.87;6.13;;;;;;;;;;5000076;28;20276;-77
2023/07/17 04:59:20;;;;;;;11.20;5.90;;;;;;;;;;5000684;28;20211;-77
2023/07/17 05:01:46;;;;;;;14.43;5.83;;;;;;;;;;5033927;28;20177;-78
2023/07/17 05:04:12;;;;;;;11.70;6.10;;;;;;;;;;5016525;28;20181;-77
2023/07/17 05:06:39;;;;;;;17.77;6.07;;;;;;;;;;5017976;28;20188;-77
2023/07/17 05:09:05;;;;;;;11.33;6.00;;;;;;;;;;5033835;28;20258;-77
2023/07/17 05:11:32;;;;;;;12.97;6.30;;;;;;;;;;5016758;28;20181;-77
2023/07/17 05:13:58;;;;;;;10.87;6.10;;;;;;;;;;5034218;28;20195;-73
2023/07/17 05:16:24;;;;;;;10.97;6.20;;;;;;;;;;5009360;28;20212;-73
2023/07/17 05:18:50;;;;;;;11.67;6.67;;;;;;;;;;5009384;28;20252;-73
2023/07/17 05:21:17;;;;;;;12.87;6.43;;;;;;;;;;4996787;28;20185;-73
2023/07/17 05:23:43;;;;;;;12.97;6.63;;;;;;;;;;5012395;28;20187;-73
2023/07/17 05:26:09;;;;;;;16.37;6.70;;;;;;;;;;5013728;28;20194;-73
2023/07/17 05:28:35;;;;;;;11.90;6.57;;;;;;;;;;4997734;28;20288;-78
2023/07/17 05:31:01;;;;;;;11.50;6.87;;;;;;;;;;5033900;28;20184;-83
2023/07/17 05:33:27;;;;;;;14.10;7.27;;;;;;;;;;5016422;28;20239;-82
2023/07/17 05:35:53;;;;;;;12.07;7.17;;;;;;;;;;5014906;28;20243;-82
2023/07/17 05:38:19;;;;;;;12.23;7.60;;;;;;;;;;5000592;28;20181;-83
2023/07/17 05:40:45;;;;;;;14.23;7.23;;;;;;;;;;5033993;28;20203;-82
2023/07/17 05:43:11;;;;;;;13.60;7.43;;;;;;;;;;5032734;28;20193;-82
2023/07/17 05:45:37;;;;;;;15.17;7.80;;;;;;;;;;5025936;28;20184;-83
2023/07/17 05:48:03;;;;;;;16.30;7.77;;;;;;;;;;5036007;28;20237;-75
2023/07/17 05:50:29;;;;;;;14.60;7.33;;;;;;;;;;5053619;28;20180;-75
2023/07/17 05:52:55;;;;;;;13.50;7.83;;;;;;;;;;5036146;28;20249;-75
2023/07/17 05:55:21;;;;;;;14.00;7.23;;;;;;;;;;5002774;28;20239;-75
2023/07/17 05:57:47;;;;;;;14.00;7.60;;;;;;;;;;4999497;28;20189;-76
2023/07/17 06:00:14;;;;;;;15.60;8.67;;;;;;;;;;5013779;28;20239;-77
2023/07/17 06:02:41;;;;;;;17.27;8.40;;;;;;;;;;5033096;28;20195;-77
2023/07/17 06:05:07;;;;;;;18.40;8.80;;;;;;;;;;5015174;28;20268;-72
2023/07/17 06:07:33;;;;;;;14.17;8.37;;;;;;;;;;5017937;28;20216;-73
2023/07/17 06:09:59;;;;;;;16.33;8.87;;;;;;;;;;4999462;28;20235;-73
2023/07/17 06:12:25;;;;;;;17.37;8.53;;;;;;;;;;5016608;28;20235;-72
2023/07/17 06:14:51;;;;;;;12.77;8.47;;;;;;;;;;4984105;28;20271;-83
2023/07/17 06:17:17;;;;;;;15.23;8.67;;;;;;;;;;4993298;28;20299;-83
2023/07/17 06:19:44;;;;;;;16.60;9.67;;;;;;;;;;5039124;28;20271;-84
2023/07/17 06:22:10;;;;;;;17.00;9.00;;;;;;;;;;5019960;28;20271;-75
2023/07/17 06:24:36;;;;;;;18.03;9.67;;;;;;;;;;5037316;28;20180;-76
2023/07/17 06:27:02;;;;;;;18.73;9.33;;;;;;;;;;5003328;28;20278;-75
2023/07/17 06:29:28;;;;;;;18.13;9.73;;;;;;;;;;5003804;28;20199;-75
2023/07/17 06:31:54;;;;;;;17.57;9.60;;;;;;;;;;5016427;28;20194;-75
2023/07/17 06:34:20;;;;;;;17.17;9.27;;;;;;;;;;4999257;28;20312;-75
2023/07/17 06:36:47;;;;;;;17.43;9.60;;;;;;;;;;5002001;28;20255;-75
2023/07/17 06:39:13;;;;;;;16.90;8.73;;;;;;;;;;5037187;28;20172;-76
2023/07/17 06:41:39;;;;;;;19.48;10.55;;;;;;;;;;5018674;28;20554;-76
2023/07/17 06:44:05;;;;;;;18.13;10.67;;;;;;;;;;5018940;28;20180;-76
2023/07/17 06:46:32;;;;;;;17.77;9.97;;;;;;;;;;5032262;28;20248;-77
2023/07/17 06:48:58;;;;;;;16.47;9.50;;;;;;;;;;5014744;28;20273;-77
2023/07/17 06:51:24;;;;;;;17.23;9.33;;;;;;;;;;5002759;28;20189;-77
2023/07/17 06:53:51;;;;;;;16.40;9.50;;;;;;;;;;5037188;28;20211;-76
2023/07/17 06:56:17;;;;;;;19.63;9.37;;;;;;;;;;5048840;28;20283;-75
2023/07/17 06:58:43;;;;;;;17.50;9.53;;;;;;;;;;5020759;28;20181;-75
2023/07/17 07:01:11;;;;;;;17.53;9.00;;;;;;;;;;5032943;28;20239;-75
2023/07/17 07:03:37;;;;;;;16.77;9.57;;;;;;;;;;5011942;28;20233;-75
2023/07/17 07:06:06;;;;;;;19.50;9.23;;;;;;;;;;5025516;28;20234;-75
2023/07/17 07:08:33;;;;;;;19.50;10.13;;;;;;;;;;5052711;28;20180;-75
2023/07/17 07:11:00;;;;;;;16.47;9.13;;;;;;;;;;5034597;28;20287;-73
2023/07/17 07:13:26;;;;;;;18.87;9.73;;;;;;;;;;5002319;28;20180;-73
2023/07/17 07:15:53;;;;;;;19.03;8.80;;;;;;;;;;5002122;28;20299;-73
2023/07/17 07:18:19;;;;;;;19.90;9.07;;;;;;;;;;5035645;28;20169;-73
2023/07/17 07:20:45;;;;;;;19.70;8.80;;;;;;;;;;5019206;28;20176;-73
2023/07/17 07:23:12;;;;;;;17.87;9.43;;;;;;;;;;5019230;28;20254;-73
2023/07/17 07:25:38;;;;;;;18.10;8.57;;;;;;;;;;5018920;28;20191;-73
2023/07/17 07:28:04;;;;;;;15.07;8.33;;;;;;;;;;5018573;28;20346;-83
2023/07/17 07:30:30;;;;;;;18.97;8.90;;;;;;;;;;5036411;28;20183;-83
2023/07/17 07:32:57;;;;;;;16.07;8.97;;;;;;;;;;5018775;28;20188;-84
2023/07/17 07:35:23;;;;;;;14.70;8.43;;;;;;;;;;5036233;28;20340;-84
2023/07/17 07:37:49;;;;;;;16.60;8.87;;;;;;;;;;5018396;28;20337;-83
2023/07/17 07:40:15;;;;;;;18.13;8.83;;;;;;;;;;5018807;28;20200;-83
2023/07/17 07:42:42;;;;;;;14.47;8.63;;;;;;;;;;5018751;28;20181;-84
2023/07/17 07:45:08;;;;;;;17.83;9.40;;;;;;;;;;5035308;28;20394;-77
2023/07/17 07:47:34;;;;;;;14.13;8.33;;;;;;;;;;5036208;28;20180;-77
2023/07/17 07:50:00;;;;;;;16.27;8.23;;;;;;;;;;5002050;28;20180;-77
2023/07/17 07:52:27;;;;;;;19.73;8.27;;;;;;;;;;5018498;28;20263;-78
2023/07/17 07:54:53;;;;;;;14.43;7.60;;;;;;;;;;5035807;28;20250;-78
2023/07/17 07:57:19;;;;;;;15.30;7.60;;;;;;;;;;5018451;28;20210;-78
2023/07/17 07:59:45;;;;;;;16.10;7.70;;;;;;;;;;5002758;28;20184;-78
2023/07/17 08:02:14;;;;;;;13.07;7.53;;;;;;;;;;5018422;28;20255;-83
2023/07/17 08:04:40;;;;;;;17.37;7.80;;;;;;;;;;5018255;28;20177;-84
2023/07/17 08:07:07;;;;;;;14.60;7.25;;;;;;;;;;5001801;28;20596;-84
2023/07/17 08:09:33;;;;;;;10.73;6.80;;;;;;;;;;5018477;28;20267;-84
2023/07/17 08:11:59;;;;;;;13.57;6.47;;;;;;;;;;4998850;28;20216;-84
2023/07/17 08:14:25;;;;;;;12.77;6.70;;;;;;;;;;4998503;28;20177;-84
2023/07/17 08:16:51;;;;;;;10.73;6.00;;;;;;;;;;5015377;28;20281;-84
2023/07/17 08:19:18;;;;;;;10.10;5.47;;;;;;;;;;4998068;28;20184;-77
2023/07/17 08:21:44;;;;;;;14.37;6.30;;;;;;;;;;5008445;28;20176;-77
2023/07/17 08:24:10;;;;;;;12.43;6.70;;;;;;;;;;5017721;28;20173;-77
2023/07/17 08:26:38;;;;;;;16.67;6.73;;;;;;;;;;5034777;28;20180;-77
2023/07/17 08:29:04;;;;;;;10.10;6.37;;;;;;;;;;5035432;28;20181;-77
2023/07/17 08:31:33;;;;;;;13.93;6.80;;;;;;;;;;5017945;28;20177;-77
2023/07/17 08:34:00;;;;;;;14.32;6.60;;;;;;;;;;5016801;28;20463;-76
2023/07/17 08:36:26;;;;;;;13.50;6.27;;;;;;;;;;5017055;28;20327;-76
2023/07/17 08:38:53;;;;;;;10.43;5.67;;;;;;;;;;4999603;28;20260;-76
2023/07/17 08:41:19;;;;;;;8.60;5.57;;;;;;;;;;5031903;28;20184;-76
2023/07/17 08:43:45;;;;;;;11.47;5.50;;;;;;;;;;5015158;28;20184;-76
2023/07/17 08:46:12;;;;;;;11.10;5.70;;;;;;;;;;5025489;28;20248;-76
2023/07/17 08:48:39;;;;;;;15.07;5.37;;;;;;;;;;4997591;28;20188;-76
2023/07/17 08:51:10;;;;;;;9.87;5.73;;;;;;;;;;5012916;23;20531;-84
2023/07/17 08:53:37;;;;;;;11.40;5.57;;;;;;;;;;5052278;28;20411;-83
2023/07/17 08:56:04;;;;;;;13.07;5.57;;;;;;;;;;5052982;28;20215;-84
2023/07/17 08:58:30;;;;;;;9.80;5.30;;;;;;;;;;5053398;28;20235;-85
2023/07/17 09:00:56;;;;;;;9.37;5.00;;;;;;;;;;5053529;28;20186;-85
2023/07/17 09:03:22;;;;;;;9.77;4.90;;;;;;;;;;5032630;28;20196;-85
2023/07/17 09:05:49;;;;;;;10.50;4.77;;;;;;;;;;5033636;28;20184;-84
2023/07/17 09:08:16;;;;;;;10.10;5.07;;;;;;;;;;5033197;28;20266;-74
2023/07/17 09:10:42;;;;;;;9.33;4.87;;;;;;;;;;5033065;28;20191;-74
2023/07/17 09:13:09;;;;;;;6.93;4.67;;;;;;;;;;5032992;28;20185;-75
2023/07/17 09:15:35;;;;;;;10.43;4.83;;;;;;;;;;5034154;28;20206;-74
2023/07/17 09:18:02;;;;;;;10.47;4.63;;;;;;;;;;5032876;28;20189;-74
2023/07/17 09:20:28;;;;;;;12.03;4.80;;;;;;;;;;5034529;28;20199;-74
2023/07/17 09:23:01;;;;;;;8.23;4.50;;;;;;;;;;5032558;28;20173;-74
2023/07/17 09:25:27;;;;;;;12.90;5.30;;;;;;;;;;5033126;28;20176;-84
2023/07/17 09:27:54;;;;;;;13.83;4.50;;;;;;;;;;5034166;28;20176;-85
2023/07/17 09:30:21;;;;;;;12.03;4.90;;;;;;;;;;5033070;28;20212;-85
2023/07/17 09:32:48;;;;;;;9.93;4.90;;;;;;;;;;5048343;28;20176;-84
2023/07/17 09:35:14;;;;;;;9.13;5.07;;;;;;;;;;5054305;28;20179;-85
2023/07/17 09:37:42;;;;;;;8.87;4.53;;;;;;;;;;5018514;28;20218;-84
2023/07/17 09:40:12;;;;;;;9.20;4.40;;;;;;;;;;5017546;28;20168;-83
2023/07/17 09:42:45;;;;;;;10.00;4.30;;;;;;;;;;5017732;28;20172;-85
2023/07/17 09:45:11;;;;;;;10.17;4.13;;;;;;;;;;5036054;28;20171;-85
2023/07/17 09:47:38;;;;;;;10.67;4.13;;;;;;;;;;5048361;28;20180;-84
2023/07/17 09:50:04;;;;;;;8.53;4.30;;;;;;;;;;5037008;28;20182;-85
2023/07/17 09:52:31;;;;;;;9.10;4.13;;;;;;;;;;5034444;28;20262;-85
2023/07/17 09:55:00;;;;;;;7.47;3.60;;;;;;;;;;5035288;28;20337;-85
2023/07/17 09:57:27;;;;;;;10.27;4.13;;;;;;;;;;5015679;28;20294;-78
2023/07/17 09:59:55;;;;;;;7.25;3.90;;;;;;;;;;5016069;28;20172;-78
2023/07/17 10:02:22;;;;;;;8.53;3.97;;;;;;;;;;5016179;28;20211;-78
2023/07/17 10:04:53;;;;;;;9.07;4.17;;;;;;;;;;5015883;28;20267;-78
2023/07/17 10:07:19;;;;;;;11.93;4.70;;;;;;;;;;5038249;28;20230;-78
2023/07/17 10:09:48;;;;;;;9.20;4.40;;;;;;;;;;5035689;28;20180;-78
2023/07/17 10:12:14;;;;;;;11.40;4.60;;;;;;;;;;5035858;28;20176;-78
2023/07/17 10:14:41;;;;;;;9.23;4.50;;;;;;;;;;5053501;28;20180;-85
2023/07/17 10:17:22;;;;;;;8.27;4.20;;;;;;;;;;5018482;28;20224;-84
2023/07/17 10:19:49;;;;;;;9.43;4.53;;;;;;;;;;5042550;28;20239;-83
2023/07/17 10:22:15;;;;;;;8.73;4.65;;;;;;;;;;5034815;28;20446;-84
2023/07/17 10:24:41;;;;;;;10.53;5.20;;;;;;;;;;5035903;28;20179;-85
2023/07/17 10:27:08;;;;;;;8.77;4.63;;;;;;;;;;5023628;28;20189;-85
2023/07/17 10:29:44;;;;;;;9.43;4.57;;;;;;;;;;5052121;28;20176;-84
2023/07/17 10:32:11;;;;;;;9.83;4.67;;;;;;;;;;5051722;28;20214;-85
2023/07/17 10:34:49;;;;;;;9.60;4.30;;;;;;;;;;5035325;28;20187;-85
2023/07/17 10:37:31;;;;;;;10.67;4.27;;;;;;;;;;5035531;28;20212;-85
2023/07/17 10:40:06;;;;;;;9.83;4.53;;;;;;;;;;5053138;28;20176;-85
2023/07/17 10:42:33;;;;;;;8.57;4.13;;;;;;;;;;5053134;28;20207;-85
2023/07/17 10:45:11;;;;;;;7.77;3.93;;;;;;;;;;5042248;28;20190;-85
2023/07/17 10:47:38;;;;;;;11.23;4.83;;;;;;;;;;5040285;28;20208;-76
2023/07/17 10:50:06;;;;;;;8.50;4.63;;;;;;;;;;5052421;28;20188;-76
2023/07/17 10:52:33;;;;;;;7.67;4.53;;;;;;;;;;5016642;28;20259;-76
2023/07/17 10:55:03;;;;;;;9.13;4.07;;;;;;;;;;5036341;28;20184;-76
2023/07/17 10:57:29;;;;;;;6.07;3.00;;;;;;;;;;5033676;28;20211;-76
2023/07/17 10:59:56;;;;;;;5.20;2.50;;;;;;;;;;5054420;28;20176;-76
2023/07/17 11:02:25;;;;;;;4.90;2.20;;;;;;;;;;5022145;28;20172;-76
2023/07/17 11:05:01;;;;;;;4.23;2.40;;;;;;;;;;5019202;28;20180;-74
2023/07/17 11:07:29;;;;;;;3.57;2.20;;;;;;;;;;5036730;28;20219;-74
2023/07/17 11:09:55;;;;;;;2.63;1.90;;;;;;;;;;5020852;28;20180;-74
2023/07/17 11:12:25;;;;;;;3.23;1.87;;;;;;;;;;5018877;28;20213;-74
2023/07/17 11:14:54;;;;;;;2.77;1.70;;;;;;;;;;5034562;28;20188;-74
2023/07/17 11:17:20;;;;;;;2.03;1.70;;;;;;;;;;5033237;28;20208;-74
2023/07/17 11:19:46;;;;;;;5.40;2.15;;;;;;;;;;5056224;28;20176;-74
2023/07/17 11:22:15;;;;;;;2.83;1.90;;;;;;;;;;5055438;28;20258;-86
2023/07/17 11:24:41;;;;;;;2.65;1.75;;;;;;;;;;5039054;28;20176;-85
2023/07/17 11:27:07;;;;;;;3.00;2.17;;;;;;;;;;5038864;28;20206;-86
2023/07/17 11:29:40;;;;;;;3.30;2.15;;;;;;;;;;5039744;28;20274;-85
2023/07/17 11:32:06;;;;;;;5.97;2.15;;;;;;;;;;5056757;28;20179;-86
2023/07/17 11:34:35;;;;;;;4.00;2.20;;;;;;;;;;5039359;28;20183;-85
2023/07/17 11:37:03;;;;;;;3.05;2.10;;;;;;;;;;5055158;28;20207;-79
2023/07/17 11:39:32;;;;;;;5.85;2.00;;;;;;;;;;5054831;28;20172;-78
2023/07/17 11:41:58;;;;;;;3.88;2.53;;;;;;;;;;5054903;28;20183;-78
2023/07/17 11:44:32;;;;;;;4.85;2.47;;;;;;;;;;5055849;28;20234;-78
2023/07/17 11:46:59;;;;;;;5.35;2.40;;;;;;;;;;5054708;28;20183;-78
2023/07/17 11:49:26;;;;;;;4.07;2.80;;;;;;;;;;5054547;28;20176;-78
2023/07/17 11:51:52;;;;;;;5.35;2.78;;;;;;;;;;5054038;28;20318;-78
2023/07/17 11:54:18;;;;;;;5.95;2.63;;;;;;;;;;5055692;28;20176;-77
2023/07/17 11:56:45;;;;;;;5.05;2.63;;;;;;;;;;5055596;28;20230;-76
2023/07/17 11:59:18;;;;;;;5.72;3.13;;;;;;;;;;5055433;28;20259;-76
2023/07/17 12:01:45;;;;;;;4.88;3.00;;;;;;;;;;5055826;28;20195;-76
2023/07/17 12:04:28;;;;;;;5.82;2.80;;;;;;;;;;5055037;28;20177;-76
2023/07/17 12:06:55;;;;;;;5.88;3.05;;;;;;;;;;5054422;28;20225;-76
2023/07/17 12:09:21;;;;;;;6.25;2.47;;;;;;;;;;5037764;28;20241;-77
2023/07/17 12:11:47;;;;;;;7.15;2.95;;;;;;;;;;5037709;28;20179;-74
2023/07/17 12:14:14;;;;;;;5.32;2.88;;;;;;;;;;5054125;28;20204;-75
2023/07/17 12:16:40;;;;;;;5.97;3.05;;;;;;;;;;5053828;28;20200;-75
2023/07/17 12:19:07;;;;;;;5.38;3.05;;;;;;;;;;5037564;28;20180;-74
2023/07/17 12:21:33;;;;;;;6.97;3.20;;;;;;;;;;5054988;28;20194;-74
2023/07/17 12:23:59;;;;;;;6.55;2.90;;;;;;;;;;5055071;28;20176;-74
2023/07/17 12:26:25;;;;;;;7.65;3.90;;;;;;;;;;5037298;28;20243;-74
2023/07/17 12:28:51;;;;;;;8.35;3.85;;;;;;;;;;5053790;28;20242;-74
2023/07/17 12:31:17;;;;;;;8.82;4.10;;;;;;;;;;5053896;28;20182;-75
2023/07/17 12:33:43;;;;;;;9.52;3.92;;;;;;;;;;5037501;28;20234;-74
2023/07/17 12:36:10;;;;;;;8.40;3.72;;;;;;;;;;5037281;28;20291;-74
2023/07/17 12:38:36;;;;;;;6.13;3.75;;;;;;;;;;5037225;28;20215;-74
2023/07/17 12:41:02;;;;;;;7.82;4.18;;;;;;;;;;5036179;28;20275;-74
2023/07/17 12:43:28;;;;;;;6.68;4.00;;;;;;;;;;5053661;28;20183;-74
2023/07/17 12:45:54;;;;;;;7.43;4.25;;;;;;;;;;5036925;28;20180;-74
2023/07/17 12:48:20;;;;;;;8.00;4.32;;;;;;;;;;5036946;28;20294;-75
2023/07/17 12:50:46;;;;;;;7.03;4.00;;;;;;;;;;5036770;28;20188;-75
2023/07/17 12:53:12;;;;;;;6.85;4.13;;;;;;;;;;5036647;28;20231;-74
2023/07/17 12:55:39;;;;;;;7.15;4.35;;;;;;;;;;5035157;28;20184;-74
2023/07/17 12:58:05;;;;;;;6.60;3.88;;;;;;;;;;5016913;28;20177;-75
2023/07/17 13:00:31;;;;;;;6.90;4.25;;;;;;;;;;5033476;28;20201;-78
2023/07/17 13:02:57;;;;;;;4.97;3.80;;;;;;;;;;5034513;28;20207;-78
2023/07/17 13:05:23;;;;;;;6.93;4.05;;;;;;;;;;5034540;28;20171;-79
2023/07/17 13:07:49;;;;;;;6.10;4.25;;;;;;;;;;5033149;28;20184;-78
2023/07/17 13:10:15;;;;;;;14.70;4.72;;;;;;;;;;5033136;28;20252;-78
2023/07/17 13:12:41;;;;;;;8.35;4.55;;;;;;;;;;5041744;28;20275;-79
2023/07/17 13:15:08;;;;;;;6.55;3.83;;;;;;;;;;5025670;28;20188;-79
2023/07/17 13:17:34;;;;;;;8.77;4.80;;;;;;;;;;5050315;28;20303;-78
2023/07/17 13:20:01;;;;;;;9.43;5.15;;;;;;;;;;5041998;28;20238;-78
2023/07/17 13:22:27;;;;;;;9.43;5.88;;;;;;;;;;5013295;28;20178;-78
2023/07/17 13:24:53;;;;;;;10.60;4.68;;;;;;;;;;5044464;28;20194;-77
2023/07/17 13:27:19;;;;;;;8.93;3.92;;;;;;;;;;5010284;28;20172;-78
2023/07/17 13:29:45;;;;;;;8.18;4.32;;;;;;;;;;5037593;28;20177;-78
2023/07/17 13:32:11;;;;;;;8.60;4.43;;;;;;;;;;5021810;28;20188;-77
2023/07/17 13:34:37;;;;;;;10.38;5.50;;;;;;;;;;5028728;28;20288;-75
2023/07/17 13:37:04;;;;;;;9.35;4.78;;;;;;;;;;5027095;28;20206;-74
2023/07/17 13:39:30;;;;;;;10.80;5.10;;;;;;;;;;5044147;28;20313;-74
2023/07/17 13:41:58;;;;;;;7.50;5.15;;;;;;;;;;5024039;28;20174;-74
2023/07/17 13:44:25;;;;;;;12.15;5.82;;;;;;;;;;5047851;28;20174;-74
2023/07/17 13:46:51;;;;;;;9.20;5.47;;;;;;;;;;5000006;28;20185;-75
2023/07/17 13:49:17;;;;;;;9.98;5.95;;;;;;;;;;5001939;28;20185;-74
2023/07/17 13:51:48;;;;;;;10.00;5.32;;;;;;;;;;5026306;28;20228;-77
2023/07/17 13:54:14;;;;;;;10.10;6.00;;;;;;;;;;5033574;28;20173;-77
2023/07/17 13:56:40;;;;;;;9.80;5.77;;;;;;;;;;5043537;28;20204;-77
2023/07/17 13:59:07;;;;;;;7.57;5.37;;;;;;;;;;5033605;28;20176;-77
2023/07/17 14:01:33;;;;;;;9.15;5.63;;;;;;;;;;5016455;28;20239;-77
2023/07/17 14:04:02;;;;;;;9.27;5.73;;;;;;;;;;5034746;28;20176;-76
2023/07/17 14:06:28;;;;;;;12.27;6.03;;;;;;;;;;5020138;28;20245;-76
2023/07/17 14:08:54;;;;;;;8.13;5.10;;;;;;;;;;5035798;28;20188;-84
2023/07/17 14:11:21;;;;;;;9.00;5.20;;;;;;;;;;5036274;28;20203;-84
2023/07/17 14:13:47;;;;;;;9.07;5.40;;;;;;;;;;5035153;28;20180;-85
2023/07/17 14:16:13;;;;;;;9.07;5.05;;;;;;;;;;5051985;28;20219;-84
2023/07/17 14:18:39;;;;;;;8.40;5.20;;;;;;;;;;5018821;28;20184;-84
2023/07/17 14:21:06;;;;;;;6.20;4.75;;;;;;;;;;5053302;28;20188;-85
2023/07/17 14:23:33;;;;;;;6.70;4.40;;;;;;;;;;5019505;28;20207;-85
2023/07/17 14:25:59;;;;;;;6.67;4.27;;;;;;;;;;5035457;28;20198;-74
2023/07/17 14:28:25;;;;;;;7.47;4.68;;;;;;;;;;5017889;28;20207;-74
2023/07/17 14:30:53;;;;;;;7.07;4.47;;;;;;;;;;5028598;28;20274;-74
2023/07/17 14:33:19;;;;;;;9.63;4.77;;;;;;;;;;5020377;28;20218;-74
2023/07/17 14:35:45;;;;;;;7.38;4.53;;;;;;;;;;5039441;28;20230;-74